createdAt,value
2018-06-03T00:01:04.705Z,23.20
2018-06-03T00:03:32.228Z,23.20
2018-06-03T00:05:59.837Z,23.20
2018-06-03T00:08:27.390Z,23.10
2018-06-03T00:10:59.875Z,23.20
2018-06-03T00:13:27.489Z,23.10
2018-06-03T00:15:55.140Z,23.20
2018-06-03T00:18:23.512Z,23.10
2018-06-03T00:21:03.653Z,23.00
2018-06-03T00:23:31.725Z,23.00
2018-06-03T00:25:59.252Z,22.90
2018-06-03T00:28:26.805Z,22.80
2018-06-03T00:30:54.367Z,22.80
2018-06-03T00:33:22.719Z,22.70
2018-06-03T00:36:02.220Z,22.70
2018-06-03T00:38:29.849Z,22.80
2018-06-03T00:40:58.266Z,22.80
2018-06-03T00:43:25.820Z,22.80
2018-06-03T00:45:53.381Z,22.90
2018-06-03T00:48:20.901Z,22.90
2018-06-03T00:50:48.461Z,22.80
2018-06-03T00:53:15.978Z,22.70
2018-06-03T00:55:43.567Z,22.70
2018-06-03T00:58:11.108Z,22.70
2018-06-03T01:00:39.392Z,22.60
2018-06-03T01:03:07.744Z,22.70
2018-06-03T01:05:35.295Z,22.70
2018-06-03T01:08:02.866Z,22.70
2018-06-03T01:10:30.497Z,22.80
2018-06-03T01:12:58.032Z,22.90
2018-06-03T01:15:25.664Z,22.80
2018-06-03T01:17:53.953Z,22.90
2018-06-03T01:20:21.487Z,22.80
2018-06-03T01:22:49.049Z,22.90
2018-06-03T01:25:17.421Z,23.00
2018-06-03T01:27:44.969Z,23.00
2018-06-03T01:30:13.018Z,23.00
2018-06-03T01:32:40.556Z,23.00
2018-06-03T01:35:08.077Z,23.10
2018-06-03T01:37:36.413Z,23.10
2018-06-03T01:40:04.648Z,23.10
2018-06-03T01:42:32.198Z,23.20
2018-06-03T01:44:59.721Z,23.20
2018-06-03T01:47:27.344Z,23.30
2018-06-03T01:49:54.901Z,23.30
2018-06-03T01:52:22.472Z,23.30
2018-06-03T01:54:50.074Z,23.20
2018-06-03T01:57:17.693Z,23.30
2018-06-03T01:59:45.215Z,23.30
2018-06-03T02:02:13.572Z,23.40
2018-06-03T02:04:41.098Z,23.40
2018-06-03T02:07:09.391Z,23.40
2018-06-03T02:09:36.916Z,23.50
2018-06-03T02:12:05.210Z,23.40
2018-06-03T02:14:32.880Z,23.40
2018-06-03T02:17:00.405Z,23.30
2018-06-03T02:19:28.710Z,23.20
2018-06-03T02:21:56.232Z,23.20
2018-06-03T02:24:23.811Z,23.10
2018-06-03T02:26:52.097Z,23.10
2018-06-03T02:29:19.633Z,23.10
2018-06-03T02:31:47.981Z,23.10
2018-06-03T02:34:15.493Z,23.10
2018-06-03T02:36:43.056Z,23.10
2018-06-03T02:39:10.693Z,23.10
2018-06-03T02:41:39.701Z,22.90
2018-06-03T02:44:08.034Z,22.90
2018-06-03T02:46:35.609Z,22.90
2018-06-03T02:49:03.180Z,22.90
2018-06-03T02:51:30.725Z,22.90
2018-06-03T02:53:58.281Z,22.80
2018-06-03T02:56:25.850Z,22.90
2018-06-03T02:58:53.374Z,22.80
2018-06-03T03:01:20.928Z,22.80
2018-06-03T03:03:48.446Z,22.50
2018-06-03T03:06:16.734Z,22.50
2018-06-03T03:08:45.098Z,22.50
2018-06-03T03:11:13.404Z,22.50
2018-06-03T03:13:40.967Z,22.50
2018-06-03T03:16:08.492Z,22.50
2018-06-03T03:18:36.045Z,22.40
2018-06-03T03:21:03.571Z,22.50
2018-06-03T03:23:34.265Z,22.50
2018-06-03T03:26:02.572Z,22.50
2018-06-03T03:28:30.121Z,22.40
2018-06-03T03:30:57.636Z,22.50
2018-06-03T03:33:25.197Z,22.50
2018-06-03T03:35:52.726Z,22.60
2018-06-03T03:38:20.277Z,22.70
2018-06-03T03:40:47.802Z,22.70
2018-06-03T03:43:16.174Z,22.60
2018-06-03T03:45:44.497Z,22.70
2018-06-03T03:48:12.061Z,22.70
2018-06-03T03:50:39.617Z,22.70
2018-06-03T03:53:07.143Z,22.60
2018-06-03T03:55:35.905Z,22.50
2018-06-03T03:58:03.483Z,22.50
2018-06-03T04:00:31.000Z,22.50
2018-06-03T04:02:58.520Z,22.50
2018-06-03T04:05:26.084Z,22.50
2018-06-03T04:07:53.603Z,22.50
2018-06-03T04:10:23.918Z,22.60
2018-06-03T04:12:51.590Z,22.50
2018-06-03T04:15:19.110Z,22.50
2018-06-03T04:17:46.664Z,22.40
2018-06-03T04:20:46.466Z,22.40
2018-06-03T04:23:15.122Z,22.50
2018-06-03T04:25:43.778Z,22.50
2018-06-03T04:28:12.444Z,22.40
2018-06-03T04:30:41.100Z,22.30
2018-06-03T04:33:09.742Z,22.40
2018-06-03T04:35:39.006Z,22.40
2018-06-03T04:38:08.638Z,22.40
2018-06-03T04:40:37.301Z,22.30
2018-06-03T04:43:05.991Z,22.40
2018-06-03T04:45:34.648Z,22.40
2018-06-03T04:48:03.264Z,22.40
2018-06-03T04:50:31.973Z,22.40
2018-06-03T04:53:00.640Z,22.50
2018-06-03T04:55:29.268Z,22.50
2018-06-03T04:57:57.927Z,22.50
2018-06-03T05:00:27.206Z,22.40
2018-06-03T05:02:55.829Z,22.50
2018-06-03T05:05:26.908Z,22.60
2018-06-03T05:07:55.616Z,22.60
2018-06-03T05:10:24.225Z,22.70
2018-06-03T05:12:52.831Z,22.70
2018-06-03T05:15:21.489Z,22.80
2018-06-03T05:17:50.672Z,22.90
2018-06-03T05:20:19.368Z,22.80
2018-06-03T05:22:48.067Z,22.70
2018-06-03T05:25:16.708Z,22.80
2018-06-03T05:27:45.365Z,22.90
2018-06-03T05:30:13.989Z,23.00
2018-06-03T05:32:42.662Z,23.00
2018-06-03T05:35:11.293Z,22.90
2018-06-03T05:37:39.960Z,22.70
2018-06-03T05:40:08.713Z,22.70
2018-06-03T05:45:10.053Z,22.90
2018-06-03T05:47:38.705Z,22.90
2018-06-03T05:50:07.366Z,23.00
2018-06-03T05:52:36.217Z,23.00
2018-06-03T05:55:04.908Z,22.90
2018-06-03T05:57:33.592Z,23.00
2018-06-03T06:00:02.954Z,22.90
2018-06-03T06:02:31.566Z,23.00
2018-06-03T06:07:28.490Z,23.20
2018-06-03T06:09:57.166Z,23.20
2018-06-03T06:12:25.820Z,23.20
2018-06-03T06:14:54.457Z,23.20
2018-06-03T06:17:23.067Z,23.10
2018-06-03T06:19:51.756Z,23.00
2018-06-03T06:22:20.417Z,23.10
2018-06-03T06:24:49.079Z,23.20
2018-06-03T06:27:17.762Z,23.20
2018-06-03T06:32:14.742Z,23.20
2018-06-03T06:34:43.478Z,23.10
2018-06-03T06:37:12.119Z,23.00
2018-06-03T06:39:40.796Z,23.00
2018-06-03T06:42:10.093Z,23.00
2018-06-03T06:44:38.790Z,23.10
2018-06-03T06:47:07.443Z,23.20
2018-06-03T06:52:04.385Z,23.20
2018-06-03T06:54:33.000Z,23.30
2018-06-03T06:57:01.653Z,23.40
2018-06-03T06:59:30.309Z,23.40
2018-06-03T07:01:58.979Z,23.40
2018-06-03T07:04:27.665Z,23.40
2018-06-03T07:06:57.111Z,23.50
2018-06-03T07:09:25.785Z,23.60
2018-06-03T07:11:54.531Z,23.50
2018-06-03T07:16:51.413Z,23.60
2018-06-03T07:19:20.046Z,23.60
2018-06-03T07:21:48.732Z,23.60
2018-06-03T07:24:17.396Z,23.70
2018-06-03T07:26:46.063Z,23.70
2018-06-03T07:29:14.678Z,23.90
2018-06-03T07:31:43.464Z,24.00
2018-06-03T07:34:13.945Z,24.10
2018-06-03T07:36:42.638Z,24.20
2018-06-03T07:39:11.276Z,24.30
2018-06-03T07:41:39.917Z,24.40
2018-06-03T07:44:08.649Z,24.40
2018-06-03T07:46:37.268Z,24.40
2018-06-03T07:51:34.277Z,24.50
2018-06-03T07:54:03.751Z,24.40
2018-06-03T07:56:32.377Z,24.40
2018-06-03T07:59:01.049Z,24.40
2018-06-03T08:01:29.691Z,24.50
2018-06-03T08:08:55.942Z,24.70
2018-06-03T08:11:24.614Z,24.90
2018-06-03T08:13:53.601Z,24.80
2018-06-03T08:16:22.693Z,24.90
2018-06-03T08:18:51.361Z,24.70
2018-06-03T08:21:19.998Z,24.80
2018-06-03T08:28:45.132Z,24.80
2018-06-03T08:31:13.804Z,24.90
2018-06-03T08:33:42.430Z,24.90
2018-06-03T08:36:11.153Z,25.00
2018-06-03T08:38:39.806Z,24.90
2018-06-03T08:41:08.467Z,24.90
2018-06-03T08:43:37.133Z,24.90
2018-06-03T08:46:05.805Z,24.90
2018-06-03T08:48:34.471Z,25.00
2018-06-03T08:51:03.167Z,25.10
2018-06-03T08:53:31.813Z,24.80
2018-06-03T08:56:00.477Z,24.70
2018-06-03T09:00:58.081Z,24.50
2018-06-03T09:03:26.760Z,24.50
2018-06-03T09:05:55.381Z,24.30
2018-06-03T09:08:24.192Z,24.30
2018-06-03T09:10:52.844Z,24.20
2018-06-03T09:13:21.514Z,24.40
2018-06-03T09:15:50.697Z,24.40
2018-06-03T09:20:47.772Z,24.60
2018-06-03T09:23:16.395Z,24.70
2018-06-03T09:25:45.110Z,24.90
2018-06-03T09:28:13.768Z,25.00
2018-06-03T09:30:42.458Z,25.20
2018-06-03T09:33:11.139Z,25.20
2018-06-03T09:35:39.816Z,25.40
2018-06-03T09:38:09.466Z,25.60
2018-06-03T09:40:38.118Z,25.50
2018-06-03T09:43:07.462Z,25.60
2018-06-03T09:45:36.125Z,25.60
2018-06-03T09:48:04.820Z,25.80
2018-06-03T09:50:33.507Z,25.80
2018-06-03T09:53:02.168Z,25.80
2018-06-03T09:55:30.827Z,25.70
2018-06-03T09:57:59.557Z,25.80
2018-06-03T10:00:28.329Z,25.70
2018-06-03T10:02:57.325Z,25.70
2018-06-03T10:05:26.111Z,25.80
2018-06-03T10:07:54.760Z,25.80
2018-06-03T10:10:23.385Z,25.80
2018-06-03T10:12:52.108Z,25.90
2018-06-03T10:15:20.734Z,25.90
2018-06-03T10:17:49.446Z,25.90
2018-06-03T10:20:18.189Z,26.00
2018-06-03T10:27:43.489Z,26.30
2018-06-03T10:30:12.176Z,26.40
2018-06-03T10:32:41.772Z,26.40
2018-06-03T10:35:10.941Z,26.40
2018-06-03T10:37:39.609Z,26.40
2018-06-03T10:42:39.158Z,26.60
2018-06-03T10:45:07.851Z,26.70
2018-06-03T10:47:36.753Z,26.90
2018-06-03T10:50:05.489Z,27.10
2018-06-03T10:57:30.704Z,27.00
2018-06-03T10:59:59.363Z,27.20
2018-06-03T11:02:28.059Z,27.00
2018-06-03T11:04:57.715Z,27.10
2018-06-03T11:09:54.624Z,27.00
2018-06-03T11:12:23.657Z,27.10
2018-06-03T11:14:52.304Z,27.00
2018-06-03T11:17:20.979Z,27.00
2018-06-03T11:19:49.693Z,27.00
2018-06-03T11:22:18.391Z,27.20
2018-06-03T11:24:47.039Z,27.40
2018-06-03T11:27:20.218Z,27.50
2018-06-03T11:29:48.889Z,27.50
2018-06-03T11:32:17.567Z,27.50
2018-06-03T11:37:14.486Z,27.60
2018-06-03T11:39:43.143Z,27.60
2018-06-03T11:42:11.813Z,27.60
2018-06-03T11:44:40.457Z,27.70
2018-06-03T11:47:09.158Z,27.60
2018-06-03T11:49:37.857Z,27.60
2018-06-03T11:52:06.515Z,27.50
2018-06-03T11:54:35.514Z,27.70
2018-06-03T11:57:04.376Z,27.90
2018-06-03T11:59:41.495Z,28.00
2018-06-03T12:02:10.580Z,28.10
2018-06-03T12:04:39.352Z,28.30
2018-06-03T12:07:08.048Z,28.60
2018-06-03T12:09:36.715Z,28.70
2018-06-03T12:12:05.546Z,28.70
2018-06-03T12:14:34.312Z,28.70
2018-06-03T12:17:03.018Z,28.80
2018-06-03T12:19:31.779Z,28.80
2018-06-03T12:22:00.459Z,28.80
2018-06-03T12:24:29.141Z,29.00
2018-06-03T12:26:57.856Z,29.20
2018-06-03T12:29:26.514Z,29.20
2018-06-03T12:31:55.194Z,29.30
2018-06-03T12:34:24.529Z,29.40
2018-06-03T12:36:53.185Z,29.50
2018-06-03T12:39:21.880Z,29.50
2018-06-03T12:41:50.569Z,29.70
2018-06-03T12:44:19.248Z,29.40
2018-06-03T12:46:48.515Z,29.70
2018-06-03T12:51:45.735Z,30.10
2018-06-03T12:54:14.448Z,30.00
2018-06-03T12:56:43.054Z,30.00
2018-06-03T13:01:39.973Z,29.70
2018-06-03T13:04:08.991Z,29.50
2018-06-03T13:06:37.664Z,29.30
2018-06-03T13:09:07.193Z,29.40
2018-06-03T13:11:35.813Z,29.60
2018-06-03T13:14:04.499Z,29.80
2018-06-03T13:16:33.249Z,29.80
2018-06-03T13:19:01.948Z,29.60
2018-06-03T13:21:30.665Z,29.50
2018-06-03T13:23:59.398Z,29.30
2018-06-03T13:26:28.117Z,29.20
2018-06-03T13:31:25.700Z,29.20
2018-06-03T13:33:54.392Z,29.20
2018-06-03T13:36:23.063Z,29.20
2018-06-03T13:38:51.697Z,29.40
2018-06-03T13:41:20.396Z,29.20
2018-06-03T13:43:49.117Z,29.40
2018-06-03T13:46:17.751Z,29.60
2018-06-03T13:48:46.421Z,29.30
2018-06-03T13:51:15.143Z,29.10
2018-06-03T13:53:43.841Z,29.00
2018-06-03T13:56:12.472Z,28.80
2018-06-03T13:58:41.353Z,28.90
2018-06-03T14:01:14.009Z,29.00
2018-06-03T14:03:42.731Z,29.10
2018-06-03T14:06:11.398Z,29.20
2018-06-03T14:08:40.098Z,29.30
2018-06-03T14:11:08.868Z,29.30
2018-06-03T14:13:37.603Z,29.00
2018-06-03T14:16:06.300Z,29.20
2018-06-03T14:18:34.953Z,29.40
2018-06-03T14:21:03.597Z,29.80
2018-06-03T14:23:32.261Z,30.20
2018-06-03T14:26:00.905Z,30.50
2018-06-03T14:30:58.517Z,30.60
2018-06-03T14:33:27.194Z,30.70
2018-06-03T14:35:55.868Z,30.70
2018-06-03T14:38:25.133Z,30.90
2018-06-03T14:40:53.821Z,30.90
2018-06-03T14:43:22.469Z,30.40
2018-06-03T14:45:51.129Z,30.30
2018-06-03T14:48:19.819Z,30.60
2018-06-03T14:50:48.533Z,30.90
2018-06-03T14:53:17.169Z,31.10
2018-06-03T14:58:14.105Z,31.20
2018-06-03T15:00:42.735Z,31.40
2018-06-03T15:03:11.416Z,31.70
2018-06-03T15:05:40.159Z,31.70
2018-06-03T15:08:10.663Z,31.60
2018-06-03T15:10:39.330Z,31.80
2018-06-03T15:13:08.769Z,31.10
2018-06-03T15:15:37.719Z,31.40
2018-06-03T15:18:06.441Z,30.90
2018-06-03T15:23:03.486Z,30.80
2018-06-03T15:25:33.186Z,30.70
2018-06-03T15:28:01.882Z,30.50
2018-06-03T15:30:30.565Z,30.10
2018-06-03T15:32:59.618Z,29.90
2018-06-03T15:35:28.519Z,30.10
2018-06-03T15:37:57.274Z,29.90
2018-06-03T15:40:25.948Z,29.90
2018-06-03T15:42:54.656Z,30.10
2018-06-03T15:45:23.357Z,30.40
2018-06-03T15:47:52.254Z,30.80
2018-06-03T15:50:21.394Z,31.10
2018-06-03T15:52:50.061Z,31.30
2018-06-03T15:55:18.684Z,31.40
2018-06-03T15:57:47.324Z,31.50
2018-06-03T16:00:15.989Z,31.70
2018-06-03T16:02:44.673Z,31.90
2018-06-03T16:05:13.419Z,31.50
2018-06-03T16:07:42.110Z,31.50
2018-06-03T16:10:10.771Z,31.50
2018-06-03T16:12:39.421Z,31.50
2018-06-03T16:15:08.123Z,31.50
2018-06-03T16:17:37.092Z,31.80
2018-06-03T16:20:05.721Z,32.10
2018-06-03T16:22:34.450Z,32.00
2018-06-03T16:25:03.125Z,32.00
2018-06-03T16:27:32.634Z,31.70
2018-06-03T16:30:01.309Z,31.40
2018-06-03T16:32:30.509Z,31.20
2018-06-03T16:34:59.215Z,31.00
2018-06-03T16:37:27.892Z,30.80
2018-06-03T16:39:56.573Z,30.80
2018-06-03T16:42:25.923Z,30.90
2018-06-03T16:44:54.622Z,31.00
2018-06-03T16:49:51.751Z,31.30
2018-06-03T16:52:20.473Z,31.40
2018-06-03T16:54:49.785Z,31.60
2018-06-03T16:57:18.476Z,31.30
2018-06-03T16:59:47.240Z,31.30
2018-06-03T17:02:16.497Z,31.60
2018-06-03T17:04:45.120Z,31.90
2018-06-03T17:07:13.983Z,31.80
2018-06-03T17:09:43.372Z,32.00
2018-06-03T17:12:12.106Z,32.10
2018-06-03T17:14:40.760Z,31.50
2018-06-03T17:17:09.445Z,31.40
2018-06-03T17:19:38.154Z,31.20
2018-06-03T17:22:06.853Z,31.10
2018-06-03T17:24:35.470Z,31.30
2018-06-03T17:27:04.238Z,31.50
2018-06-03T17:29:32.928Z,31.60
2018-06-03T17:32:01.624Z,31.50
2018-06-03T17:34:30.309Z,31.30
2018-06-03T17:39:27.325Z,31.20
2018-06-03T17:41:55.977Z,31.10
2018-06-03T17:44:24.865Z,31.00
2018-06-03T17:46:53.588Z,30.80
2018-06-03T17:49:22.193Z,30.70
2018-06-03T17:51:50.848Z,30.50
2018-06-03T17:54:19.529Z,30.00
2018-06-03T17:56:48.190Z,29.50
2018-06-03T17:59:16.823Z,29.50
2018-06-03T18:01:49.617Z,29.40
2018-06-03T18:04:18.836Z,29.20
2018-06-03T18:06:47.493Z,29.10
2018-06-03T18:09:16.357Z,29.10
2018-06-03T18:11:45.252Z,29.00
2018-06-03T18:14:13.898Z,29.00
2018-06-03T18:16:42.565Z,29.10
2018-06-03T18:19:11.458Z,29.10
2018-06-03T18:21:40.359Z,28.80
2018-06-03T18:24:09.123Z,28.60
2018-06-03T18:26:37.920Z,28.40
2018-06-03T18:29:06.643Z,28.40
2018-06-03T18:31:35.408Z,28.30
2018-06-03T18:34:04.778Z,28.40
2018-06-03T18:36:33.517Z,28.40
2018-06-03T18:39:02.223Z,28.30
2018-06-03T18:41:31.506Z,28.30
2018-06-03T18:44:00.155Z,28.20
2018-06-03T18:46:28.858Z,28.10
2018-06-03T18:48:57.620Z,28.10
2018-06-03T18:51:26.323Z,28.10
2018-06-03T18:53:55.087Z,28.10
2018-06-03T18:56:23.756Z,28.10
2018-06-03T18:58:52.613Z,28.00
2018-06-03T19:03:49.660Z,28.00
2018-06-03T19:08:46.805Z,27.90
2018-06-03T19:11:15.566Z,27.80
2018-06-03T19:13:44.391Z,27.80
2018-06-03T19:16:13.042Z,27.80
2018-06-03T19:18:41.819Z,27.60
2018-06-03T19:21:10.600Z,27.60
2018-06-03T19:23:39.321Z,27.60
2018-06-03T19:26:08.768Z,27.60
2018-06-03T19:31:05.899Z,27.50
2018-06-03T19:33:34.629Z,27.40
2018-06-03T19:36:04.154Z,27.40
2018-06-03T19:38:32.844Z,27.40
2018-06-03T19:41:01.575Z,27.40
2018-06-03T19:43:30.502Z,27.40
2018-06-03T19:46:00.007Z,27.40
2018-06-03T19:48:28.786Z,27.40
2018-06-03T19:53:26.352Z,27.30
2018-06-03T19:55:55.078Z,27.30
2018-06-03T19:58:23.808Z,27.30
2018-06-03T20:05:50.006Z,27.00
2018-06-03T20:08:18.661Z,27.00
2018-06-03T20:10:47.378Z,27.00
2018-06-03T20:13:16.057Z,27.00
2018-06-03T20:15:44.850Z,27.00
2018-06-03T20:18:13.529Z,26.90
2018-06-03T20:20:42.219Z,26.90
2018-06-03T20:23:10.952Z,26.90
2018-06-03T20:25:39.702Z,26.90
2018-06-03T20:30:36.794Z,26.80
2018-06-03T20:33:05.401Z,26.80
2018-06-03T20:35:34.321Z,26.80
2018-06-03T20:38:02.988Z,26.80
2018-06-03T20:40:31.700Z,26.80
2018-06-03T20:43:00.416Z,26.70
2018-06-03T20:47:57.324Z,26.70
2018-06-03T20:50:25.962Z,26.60
2018-06-03T20:55:22.905Z,26.60
2018-06-03T20:57:51.615Z,26.60
2018-06-03T21:00:20.360Z,26.60
2018-06-03T21:02:49.059Z,26.60
2018-06-03T21:05:18.361Z,26.60
2018-06-03T21:07:47.045Z,26.60
2018-06-03T21:10:15.787Z,26.50
2018-06-03T21:12:44.525Z,26.50
2018-06-03T21:15:16.121Z,26.50
2018-06-03T21:17:44.823Z,26.40
2018-06-03T21:20:13.557Z,26.50
2018-06-03T21:22:42.190Z,26.50
2018-06-03T21:25:10.916Z,26.40
2018-06-03T21:27:40.590Z,26.40
2018-06-03T21:30:09.306Z,26.40
2018-06-03T21:32:38.094Z,26.40
2018-06-03T21:35:06.837Z,26.30
2018-06-03T21:37:35.538Z,26.40
2018-06-03T21:42:32.611Z,26.40
2018-06-03T21:45:01.342Z,26.30
2018-06-03T21:47:30.001Z,26.20
2018-06-03T21:49:58.915Z,26.20
2018-06-03T21:52:27.850Z,26.20
2018-06-03T21:54:56.542Z,26.20
2018-06-03T21:57:25.257Z,26.30
2018-06-03T21:59:53.942Z,26.20
2018-06-03T22:02:22.648Z,26.20
2018-06-03T22:04:51.344Z,26.10
2018-06-03T22:07:19.997Z,26.00
2018-06-03T22:09:48.628Z,25.90
2018-06-03T22:12:17.279Z,25.90
2018-06-03T22:14:45.951Z,25.80
2018-06-03T22:17:14.571Z,25.70
2018-06-03T22:19:43.240Z,25.50
2018-06-03T22:22:11.893Z,25.50
2018-06-03T22:27:08.811Z,25.40
2018-06-03T22:29:44.084Z,25.20
2018-06-03T22:32:12.748Z,25.00
2018-06-03T22:34:41.386Z,24.70
2018-06-03T22:37:10.768Z,24.50
2018-06-03T22:39:39.439Z,24.30
2018-06-03T22:42:08.148Z,24.20
2018-06-03T22:44:36.889Z,24.00
2018-06-03T22:47:05.690Z,24.00
2018-06-03T22:49:34.364Z,23.80
2018-06-03T22:52:03.048Z,23.60
2018-06-03T22:54:31.658Z,23.50
2018-06-03T22:57:41.622Z,23.30
2018-06-03T23:00:10.729Z,23.30
2018-06-03T23:02:39.438Z,23.10
2018-06-03T23:05:08.116Z,23.20
2018-06-03T23:10:05.061Z,23.30
2018-06-03T23:12:33.702Z,23.40
2018-06-03T23:15:02.330Z,23.30
2018-06-03T23:17:30.973Z,23.30
2018-06-03T23:19:59.620Z,23.10
2018-06-03T23:22:28.283Z,22.80
2018-06-03T23:24:56.877Z,22.80
2018-06-03T23:27:25.598Z,23.00
2018-06-03T23:29:54.262Z,23.00
2018-06-03T23:34:51.262Z,23.00
2018-06-03T23:37:19.985Z,23.20
2018-06-03T23:39:48.681Z,23.30
2018-06-03T23:42:17.381Z,23.50
2018-06-03T23:44:46.053Z,23.70
2018-06-03T23:47:14.707Z,23.80
2018-06-03T23:49:43.317Z,23.90
2018-06-03T23:52:11.948Z,23.90
2018-06-03T23:54:40.684Z,23.90
2018-06-03T23:57:09.917Z,23.90
2018-06-03T23:59:39.368Z,24.00
